Yamabishimaru No.11 — JD2897 — position and weather

sailwx.info

Track history (hours):
 
Tides and Currents Weather Stations Pressure Air Temp Water Temp Dewpoint Dewpoint Depression Visibility Wind Speed Wind Dir Waves Ship Positions

Yamabishimaru No.11

Last reported at 2017-Nov-20 00:00 UTC. Time now 2017-Nov-20 00:29 UTC.
Position N 35°30' E 139°49'.

Length 65 m; draft 5 m.

Type: Tanker. MMSI: 431000903.

Date/timePositionNaut miles runAvg speedWind from/ knotsBaromVisibWave heightAir tempDewpointWater temp
2017-Nov-20 00:00N 35°30' E 139°49'1 1.3
2017-Nov-19 23:30N 35°29' E 139°49'3 6.3
2017-Nov-19 23:00N 35°26' E 139°47'611.5
2017-Nov-19 22:30N 35°21' E 139°45'510.6
2017-Nov-19 22:00N 35°16' E 139°46'611.5
2017-Nov-19 21:30N 35°10' E 139°46'611.5
2017-Nov-19 21:00N 35°05' E 139°43'611.6
2017-Nov-19 20:30N 35°02' E 139°37'9 0.3
2017-Nov-18 09:01N 35°00' E 139°26'211.1
2017-Nov-18 08:52N 35°01' E 139°28'410.9
2017-Nov-18 08:30N 35°03' E 139°32'611.1
2017-Nov-18 08:00N 35°06' E 139°38'611.0
2017-Nov-18 07:29N 35°09' E 139°44'510.8
2017-Nov-18 07:00N 35°14' E 139°46'510.3
2017-Nov-18 06:30N 35°18' E 139°44'510.4
2017-Nov-18 06:00N 35°23' E 139°42'5 9.9
2017-Nov-18 05:30N 35°27' E 139°47'4 7.3
2017-Nov-18 05:00N 35°30' E 139°46'1 1.9
2017-Nov-18 04:30N 35°31' E 139°45'0 0.0
2017-Nov-18 04:00N 35°31' E 139°45'0 0.0
2017-Nov-18 03:30N 35°31' E 139°45'0 0.0
2017-Nov-18 03:00N 35°31' E 139°45'0 0.0
2017-Nov-18 02:30N 35°31' E 139°45'0 0.0
2017-Nov-18 02:00N 35°31' E 139°45'0 0.0
2017-Nov-18 01:30N 35°31' E 139°45'0 0.0
2017-Nov-18 01:00N 35°31' E 139°45'0 0.0
2017-Nov-18 00:30N 35°31' E 139°45'0 0.0
2017-Nov-18 00:00N 35°31' E 139°45'0 0.0
2017-Nov-17 23:30N 35°31' E 139°45'0 0.0
2017-Nov-17 23:00N 35°31' E 139°45'4 7.7
2017-Nov-17 22:30N 35°30' E 139°49'1 1.3
2017-Nov-17 22:00N 35°30' E 139°50'0 0.0
2017-Nov-17 21:30N 35°30' E 139°50'0 0.1
2017-Nov-17 21:00N 35°30' E 139°50'0 0.0
2017-Nov-17 20:30N 35°30' E 139°50'0 0.0
2017-Nov-17 20:00N 35°30' E 139°50'0 0.0
2017-Nov-17 19:30N 35°30' E 139°50'0 0.0
2017-Nov-17 19:00N 35°30' E 139°50'0 0.0
2017-Nov-17 18:30N 35°30' E 139°50'0 0.0
2017-Nov-17 18:00N 35°30' E 139°50'0 0.0
2017-Nov-17 17:30N 35°30' E 139°50'0 0.0
2017-Nov-17 17:00N 35°30' E 139°50'0 0.0
2017-Nov-17 16:30N 35°30' E 139°50'0 0.0
2017-Nov-17 16:00N 35°30' E 139°50'0 0.0
2017-Nov-17 15:30N 35°30' E 139°50'0 0.0
2017-Nov-17 15:00N 35°30' E 139°50'0 0.0
2017-Nov-17 14:30N 35°30' E 139°50'0 0.1
2017-Nov-17 14:00N 35°30' E 139°50'0 0.0
2017-Nov-17 12:34N 35°30' E 139°50'0 0.1
2017-Nov-17 12:30N 35°30' E 139°50'0 0.0
2017-Nov-17 12:00N 35°30' E 139°50'0 0.0
2017-Nov-17 11:30N 35°30' E 139°50'0 0.2
2017-Nov-17 11:00N 35°30' E 139°50'1211.1
2017-Nov-17 09:54N 35°33' E 140°05'10 1.6
2017-Nov-17 03:42N 35°31' E 139°53'210.6
2017-Nov-17 03:28N 35°31' E 139°50'3 6.9
2017-Nov-17 03:00N 35°31' E 139°46'0 0.0
2017-Nov-17 02:30N 35°31' E 139°46'0 0.0
2017-Nov-17 02:00N 35°31' E 139°46'0 0.0
2017-Nov-17 01:30N 35°31' E 139°46'0 0.0
2017-Nov-17 01:00N 35°31' E 139°46'0 0.0
2017-Nov-17 00:30N 35°31' E 139°46'0 0.0
2017-Nov-17 00:00N 35°31' E 139°46'0 0.0
2017-Nov-16 23:30N 35°31' E 139°46'0 0.0
2017-Nov-16 23:00N 35°31' E 139°46'0 0.0
2017-Nov-16 22:30N 35°31' E 139°46'3 5.6
2017-Nov-16 22:00N 35°30' E 139°49'1 1.8
2017-Nov-16 21:30N 35°30' E 139°50'0 0.0
2017-Nov-16 21:00N 35°30' E 139°50'0 0.0
2017-Nov-16 20:30N 35°30' E 139°50'0 0.0
2017-Nov-16 20:00N 35°30' E 139°50'0 0.0
2017-Nov-16 19:30N 35°30' E 139°50'0 0.0
2017-Nov-16 19:00N 35°30' E 139°50'0 0.0
2017-Nov-16 18:30N 35°30' E 139°50'0 0.0
2017-Nov-16 18:00N 35°30' E 139°50'0 0.0
2017-Nov-16 17:30N 35°30' E 139°50'0 0.0
2017-Nov-16 17:00N 35°30' E 139°50'0 0.0
2017-Nov-16 16:30N 35°30' E 139°50'0 0.0
2017-Nov-16 16:00N 35°30' E 139°50'0 0.0
2017-Nov-16 15:29N 35°30' E 139°50'0 0.0
2017-Nov-16 15:00N 35°30' E 139°50'0 0.0
2017-Nov-16 14:30N 35°30' E 139°50'0 0.0
2017-Nov-16 14:00N 35°30' E 139°50'0 0.0
2017-Nov-16 13:30N 35°30' E 139°50'0 0.0
2017-Nov-16 13:00N 35°30' E 139°50'0 0.0
2017-Nov-16 12:30N 35°30' E 139°50'0 0.0
2017-Nov-16 12:00N 35°30' E 139°50'0 0.0
2017-Nov-16 11:30N 35°30' E 139°50'0 0.0
2017-Nov-16 11:00N 35°30' E 139°50'0 0.0
2017-Nov-16 10:30N 35°30' E 139°50'0 0.0
2017-Nov-16 10:00N 35°30' E 139°50'0 0.0
2017-Nov-16 09:30N 35°30' E 139°50'0 0.0
2017-Nov-16 09:00N 35°30' E 139°50'6 1.1
2017-Nov-16 03:38N 35°30' E 139°58'2 9.2
2017-Nov-16 03:28N 35°29' E 139°56'0 0.8
2017-Nov-16 02:59N 35°28' E 139°56'0 0.0
2017-Nov-16 02:30N 35°28' E 139°56'0 0.0
2017-Nov-16 01:55N 35°28' E 139°56'0 0.0
2017-Nov-16 01:30N 35°28' E 139°56'0 0.0
2017-Nov-16 01:00N 35°28' E 139°56'0 0.0
2017-Nov-16 00:30N 35°28' E 139°56'0 0.0
2017-Nov-16 00:00N 35°28' E 139°56'0 0.0
2017-Nov-15 23:30N 35°28' E 139°56'0 0.0
2017-Nov-15 22:58N 35°28' E 139°56'0 0.0
2017-Nov-15 22:30N 35°28' E 139°56'0 0.0
2017-Nov-15 22:00N 35°28' E 139°56'0 0.0
2017-Nov-15 21:30N 35°28' E 139°56'0 0.0
2017-Nov-15 21:00N 35°28' E 139°56'0 0.0
2017-Nov-15 20:30N 35°28' E 139°56'0 0.0
2017-Nov-15 20:00N 35°28' E 139°56'0 0.0
2017-Nov-15 19:30N 35°28' E 139°56'0 0.0
2017-Nov-15 19:00N 35°28' E 139°56'0 0.0
2017-Nov-15 18:29N 35°28' E 139°56'0 0.0
2017-Nov-15 18:00N 35°28' E 139°56'0 0.0
2017-Nov-15 17:30N 35°28' E 139°56'0 0.0
2017-Nov-15 17:00N 35°28' E 139°56'0 0.0
2017-Nov-15 16:30N 35°28' E 139°56'0 0.0
2017-Nov-15 16:00N 35°28' E 139°56'0 0.0
2017-Nov-15 15:29N 35°28' E 139°56'0 0.0
2017-Nov-15 14:54N 35°28' E 139°56'0 0.0
2017-Nov-15 14:30N 35°28' E 139°56'0 0.0
2017-Nov-15 13:41N 35°28' E 139°56'0 0.0
2017-Nov-15 13:27N 35°28' E 139°56'0 0.0
2017-Nov-15 13:00N 35°28' E 139°56'0 0.0
2017-Nov-15 12:27N 35°28' E 139°56'1 3.2
2017-Nov-15 12:00N 35°29' E 139°54'511.0
2017-Nov-15 11:30N 35°26' E 139°48'611.3
2017-Nov-15 11:00N 35°21' E 139°45'510.1
2017-Nov-15 10:30N 35°16' E 139°46'5 9.9
2017-Nov-15 10:00N 35°11' E 139°47'510.9
2017-Nov-15 09:30N 35°06' E 139°44'611.3
2017-Nov-15 09:00N 35°02' E 139°39'611.2
2017-Nov-15 08:27N 34°58' E 139°33'230 9.2
2017-Nov-14 07:28N 34°04' E 135°02'511.1
2017-Nov-14 07:00N 34°10' E 135°02'510.5
2017-Nov-14 06:30N 34°15' E 135°03'1210.3
2017-Nov-14 05:21N 34°25' E 135°10'411.1
2017-Nov-14 04:59N 34°29' E 135°13'511.0
2017-Nov-14 04:29N 34°33' E 135°17'511.0
2017-Nov-14 03:59N 34°37' E 135°21'5 9.4
2017-Nov-14 03:30N 34°40' E 135°25'0 0.1
2017-Nov-14 03:00N 34°40' E 135°25'0 0.0
2017-Nov-14 02:30N 34°40' E 135°25'0 0.0
2017-Nov-14 02:00N 34°40' E 135°25'0 0.0
2017-Nov-14 01:30N 34°40' E 135°25'1 2.6
2017-Nov-14 01:00N 34°39' E 135°24'3 5.7
2017-Nov-14 00:30N 34°38' E 135°21'0 0.6
2017-Nov-14 00:00N 34°38' E 135°21'0 0.0
2017-Nov-13 23:30N 34°38' E 135°21'0 0.1
2017-Nov-13 23:00N 34°38' E 135°21'0 0.1
2017-Nov-13 22:30N 34°38' E 135°21'0 0.1
2017-Nov-13 22:00N 34°38' E 135°21'  
2017-Nov-10 10:32N 34°37' E 134°56'010.1
2017-Nov-10 10:29N 34°37' E 134°56'5 9.1
2017-Nov-10 09:56N 34°37' E 135°02'4 9.0
2017-Nov-10 09:30N 34°34' E 135°05'2010.5
2017-Nov-10 07:36N 34°14' E 135°01'211.3
2017-Nov-10 07:25N 34°13' E 135°02'511.2
2017-Nov-10 07:00N 34°09' E 135°06'3 0.4
2017-Nov-10 00:01N 34°07' E 135°07'0 0.9
2017-Nov-10 00:00N 34°07' E 135°07'  
Track history (hours):
 
Tides and Currents Weather Stations Pressure Air Temp Water Temp Dewpoint Dewpoint Depression Visibility Wind Speed Wind Dir Waves Ship Positions

Yamabishimaru No.11

Last reported at 2017-Nov-20 00:00 UTC. Time now 2017-Nov-20 00:29 UTC.
Position N 35°30' E 139°49'.

Length 65 m; draft 5 m.

Type: Tanker. MMSI: 431000903.

Date/timePositionNaut miles runAvg speedWind from/ knotsBaromVisibWave heightAir tempDewpointWater temp
2017-Nov-20 00:00N 35°30' E 139°49'1 1.3
2017-Nov-19 23:30N 35°29' E 139°49'3 6.3
2017-Nov-19 23:00N 35°26' E 139°47'611.5
2017-Nov-19 22:30N 35°21' E 139°45'510.6
2017-Nov-19 22:00N 35°16' E 139°46'611.5
2017-Nov-19 21:30N 35°10' E 139°46'611.5
2017-Nov-19 21:00N 35°05' E 139°43'611.6
2017-Nov-19 20:30N 35°02' E 139°37'9 0.3
2017-Nov-18 09:01N 35°00' E 139°26'211.1
2017-Nov-18 08:52N 35°01' E 139°28'410.9
2017-Nov-18 08:30N 35°03' E 139°32'611.1
2017-Nov-18 08:00N 35°06' E 139°38'611.0
2017-Nov-18 07:29N 35°09' E 139°44'510.8
2017-Nov-18 07:00N 35°14' E 139°46'510.3
2017-Nov-18 06:30N 35°18' E 139°44'510.4
2017-Nov-18 06:00N 35°23' E 139°42'5 9.9
2017-Nov-18 05:30N 35°27' E 139°47'4 7.3
2017-Nov-18 05:00N 35°30' E 139°46'1 1.9
2017-Nov-18 04:30N 35°31' E 139°45'0 0.0
2017-Nov-18 04:00N 35°31' E 139°45'0 0.0
2017-Nov-18 03:30N 35°31' E 139°45'0 0.0
2017-Nov-18 03:00N 35°31' E 139°45'0 0.0
2017-Nov-18 02:30N 35°31' E 139°45'0 0.0
2017-Nov-18 02:00N 35°31' E 139°45'0 0.0
2017-Nov-18 01:30N 35°31' E 139°45'0 0.0
2017-Nov-18 01:00N 35°31' E 139°45'0 0.0
2017-Nov-18 00:30N 35°31' E 139°45'0 0.0
2017-Nov-18 00:00N 35°31' E 139°45'0 0.0
2017-Nov-17 23:30N 35°31' E 139°45'0 0.0
2017-Nov-17 23:00N 35°31' E 139°45'4 7.7
2017-Nov-17 22:30N 35°30' E 139°49'1 1.3
2017-Nov-17 22:00N 35°30' E 139°50'0 0.0
2017-Nov-17 21:30N 35°30' E 139°50'0 0.1
2017-Nov-17 21:00N 35°30' E 139°50'0 0.0
2017-Nov-17 20:30N 35°30' E 139°50'0 0.0
2017-Nov-17 20:00N 35°30' E 139°50'0 0.0
2017-Nov-17 19:30N 35°30' E 139°50'0 0.0
2017-Nov-17 19:00N 35°30' E 139°50'0 0.0
2017-Nov-17 18:30N 35°30' E 139°50'0 0.0
2017-Nov-17 18:00N 35°30' E 139°50'0 0.0
2017-Nov-17 17:30N 35°30' E 139°50'0 0.0
2017-Nov-17 17:00N 35°30' E 139°50'0 0.0
2017-Nov-17 16:30N 35°30' E 139°50'0 0.0
2017-Nov-17 16:00N 35°30' E 139°50'0 0.0
2017-Nov-17 15:30N 35°30' E 139°50'0 0.0
2017-Nov-17 15:00N 35°30' E 139°50'0 0.0
2017-Nov-17 14:30N 35°30' E 139°50'0 0.1
2017-Nov-17 14:00N 35°30' E 139°50'0 0.0
2017-Nov-17 12:34N 35°30' E 139°50'0 0.1
2017-Nov-17 12:30N 35°30' E 139°50'0 0.0
2017-Nov-17 12:00N 35°30' E 139°50'0 0.0
2017-Nov-17 11:30N 35°30' E 139°50'0 0.2
2017-Nov-17 11:00N 35°30' E 139°50'1211.1
2017-Nov-17 09:54N 35°33' E 140°05'10 1.6
2017-Nov-17 03:42N 35°31' E 139°53'210.6
2017-Nov-17 03:28N 35°31' E 139°50'3 6.9
2017-Nov-17 03:00N 35°31' E 139°46'0 0.0
2017-Nov-17 02:30N 35°31' E 139°46'0 0.0
2017-Nov-17 02:00N 35°31' E 139°46'0 0.0
2017-Nov-17 01:30N 35°31' E 139°46'0 0.0
2017-Nov-17 01:00N 35°31' E 139°46'0 0.0
2017-Nov-17 00:30N 35°31' E 139°46'0 0.0
2017-Nov-17 00:00N 35°31' E 139°46'0 0.0
2017-Nov-16 23:30N 35°31' E 139°46'0 0.0
2017-Nov-16 23:00N 35°31' E 139°46'0 0.0
2017-Nov-16 22:30N 35°31' E 139°46'3 5.6
2017-Nov-16 22:00N 35°30' E 139°49'1 1.8
2017-Nov-16 21:30N 35°30' E 139°50'0 0.0
2017-Nov-16 21:00N 35°30' E 139°50'0 0.0
2017-Nov-16 20:30N 35°30' E 139°50'0 0.0
2017-Nov-16 20:00N 35°30' E 139°50'0 0.0
2017-Nov-16 19:30N 35°30' E 139°50'0 0.0
2017-Nov-16 19:00N 35°30' E 139°50'0 0.0
2017-Nov-16 18:30N 35°30' E 139°50'0 0.0
2017-Nov-16 18:00N 35°30' E 139°50'0 0.0
2017-Nov-16 17:30N 35°30' E 139°50'0 0.0
2017-Nov-16 17:00N 35°30' E 139°50'0 0.0
2017-Nov-16 16:30N 35°30' E 139°50'0 0.0
2017-Nov-16 16:00N 35°30' E 139°50'0 0.0
2017-Nov-16 15:29N 35°30' E 139°50'0 0.0
2017-Nov-16 15:00N 35°30' E 139°50'0 0.0
2017-Nov-16 14:30N 35°30' E 139°50'0 0.0
2017-Nov-16 14:00N 35°30' E 139°50'0 0.0
2017-Nov-16 13:30N 35°30' E 139°50'0 0.0
2017-Nov-16 13:00N 35°30' E 139°50'0 0.0
2017-Nov-16 12:30N 35°30' E 139°50'0 0.0
2017-Nov-16 12:00N 35°30' E 139°50'0 0.0
2017-Nov-16 11:30N 35°30' E 139°50'0 0.0
2017-Nov-16 11:00N 35°30' E 139°50'0 0.0
2017-Nov-16 10:30N 35°30' E 139°50'0 0.0
2017-Nov-16 10:00N 35°30' E 139°50'0 0.0
2017-Nov-16 09:30N 35°30' E 139°50'0 0.0
2017-Nov-16 09:00N 35°30' E 139°50'6 1.1
2017-Nov-16 03:38N 35°30' E 139°58'2 9.2
2017-Nov-16 03:28N 35°29' E 139°56'0 0.8
2017-Nov-16 02:59N 35°28' E 139°56'0 0.0
2017-Nov-16 02:30N 35°28' E 139°56'0 0.0
2017-Nov-16 01:55N 35°28' E 139°56'0 0.0
2017-Nov-16 01:30N 35°28' E 139°56'0 0.0
2017-Nov-16 01:00N 35°28' E 139°56'0 0.0
2017-Nov-16 00:30N 35°28' E 139°56'0 0.0
2017-Nov-16 00:00N 35°28' E 139°56'0 0.0
2017-Nov-15 23:30N 35°28' E 139°56'0 0.0
2017-Nov-15 22:58N 35°28' E 139°56'0 0.0
2017-Nov-15 22:30N 35°28' E 139°56'0 0.0
2017-Nov-15 22:00N 35°28' E 139°56'0 0.0
2017-Nov-15 21:30N 35°28' E 139°56'0 0.0
2017-Nov-15 21:00N 35°28' E 139°56'0 0.0
2017-Nov-15 20:30N 35°28' E 139°56'0 0.0
2017-Nov-15 20:00N 35°28' E 139°56'0 0.0
2017-Nov-15 19:30N 35°28' E 139°56'0 0.0
2017-Nov-15 19:00N 35°28' E 139°56'0 0.0
2017-Nov-15 18:29N 35°28' E 139°56'0 0.0
2017-Nov-15 18:00N 35°28' E 139°56'0 0.0
2017-Nov-15 17:30N 35°28' E 139°56'0 0.0
2017-Nov-15 17:00N 35°28' E 139°56'0 0.0
2017-Nov-15 16:30N 35°28' E 139°56'0 0.0
2017-Nov-15 16:00N 35°28' E 139°56'0 0.0
2017-Nov-15 15:29N 35°28' E 139°56'0 0.0
2017-Nov-15 14:54N 35°28' E 139°56'0 0.0
2017-Nov-15 14:30N 35°28' E 139°56'0 0.0
2017-Nov-15 13:41N 35°28' E 139°56'0 0.0
2017-Nov-15 13:27N 35°28' E 139°56'0 0.0
2017-Nov-15 13:00N 35°28' E 139°56'0 0.0
2017-Nov-15 12:27N 35°28' E 139°56'1 3.2
2017-Nov-15 12:00N 35°29' E 139°54'511.0
2017-Nov-15 11:30N 35°26' E 139°48'611.3
2017-Nov-15 11:00N 35°21' E 139°45'510.1
2017-Nov-15 10:30N 35°16' E 139°46'5 9.9
2017-Nov-15 10:00N 35°11' E 139°47'510.9
2017-Nov-15 09:30N 35°06' E 139°44'611.3
2017-Nov-15 09:00N 35°02' E 139°39'611.2
2017-Nov-15 08:27N 34°58' E 139°33'230 9.2
2017-Nov-14 07:28N 34°04' E 135°02'511.1
2017-Nov-14 07:00N 34°10' E 135°02'510.5
2017-Nov-14 06:30N 34°15' E 135°03'1210.3
2017-Nov-14 05:21N 34°25' E 135°10'411.1
2017-Nov-14 04:59N 34°29' E 135°13'511.0
2017-Nov-14 04:29N 34°33' E 135°17'511.0
2017-Nov-14 03:59N 34°37' E 135°21'5 9.4
2017-Nov-14 03:30N 34°40' E 135°25'0 0.1
2017-Nov-14 03:00N 34°40' E 135°25'0 0.0
2017-Nov-14 02:30N 34°40' E 135°25'0 0.0
2017-Nov-14 02:00N 34°40' E 135°25'0 0.0
2017-Nov-14 01:30N 34°40' E 135°25'1 2.6
2017-Nov-14 01:00N 34°39' E 135°24'3 5.7
2017-Nov-14 00:30N 34°38' E 135°21'0 0.6
2017-Nov-14 00:00N 34°38' E 135°21'0 0.0
2017-Nov-13 23:30N 34°38' E 135°21'0 0.1
2017-Nov-13 23:00N 34°38' E 135°21'0 0.1
2017-Nov-13 22:30N 34°38' E 135°21'0 0.1
2017-Nov-13 22:00N 34°38' E 135°21'  
2017-Nov-10 10:32N 34°37' E 134°56'010.1
2017-Nov-10 10:29N 34°37' E 134°56'5 9.1
2017-Nov-10 09:56N 34°37' E 135°02'4 9.0
2017-Nov-10 09:30N 34°34' E 135°05'2010.5
2017-Nov-10 07:36N 34°14' E 135°01'211.3
2017-Nov-10 07:25N 34°13' E 135°02'511.2
2017-Nov-10 07:00N 34°09' E 135°06'3 0.4
2017-Nov-10 00:01N 34°07' E 135°07'0 0.9
2017-Nov-10 00:00N 34°07' E 135°07'  

Dump ship's entire track history